createdAt,value
2022-11-06T00:01:46.292Z,10.85
2022-11-06T00:05:47.097Z,10.98
2022-11-06T00:09:28.812Z,11.10
2022-11-06T00:13:10.629Z,11.18
2022-11-06T00:16:52.309Z,11.27
2022-11-06T00:20:33.962Z,9.73
2022-11-06T00:24:17.868Z,11.40
2022-11-06T00:27:59.573Z,10.95
2022-11-06T00:31:41.703Z,11.18
2022-11-06T00:35:23.542Z,11.88
2022-11-06T00:39:05.246Z,11.63
2022-11-06T00:42:47.182Z,12.10
2022-11-06T00:46:29.000Z,13.65
2022-11-06T00:50:10.661Z,15.20
2022-11-06T00:53:56.980Z,15.00
2022-11-06T00:57:38.663Z,15.63
2022-11-06T01:01:22.729Z,14.75
2022-11-06T01:05:05.156Z,15.80
2022-11-06T01:08:47.747Z,14.30
2022-11-06T01:12:31.852Z,15.27
2022-11-06T01:16:14.750Z,14.77
2022-11-06T01:19:56.456Z,14.97
2022-11-06T01:23:39.319Z,13.60
2022-11-06T01:27:26.454Z,13.83
2022-11-06T01:31:16.040Z,13.48
2022-11-06T01:34:57.727Z,12.77
2022-11-06T01:38:46.794Z,12.40
2022-11-06T01:42:28.583Z,13.73
2022-11-06T01:46:10.375Z,12.80
2022-11-06T01:49:55.088Z,12.55
2022-11-06T01:53:37.032Z,12.50
2022-11-06T01:57:18.724Z,12.88
2022-11-06T02:01:02.725Z,13.05
2022-11-06T02:04:45.587Z,13.10
2022-11-06T02:08:27.282Z,12.70
2022-11-06T02:12:30.901Z,11.88
2022-11-06T02:16:31.332Z,12.30
2022-11-06T02:20:44.193Z,10.75
2022-11-06T02:24:48.707Z,9.82
2022-11-06T02:28:41.661Z,9.63
2022-11-06T02:32:28.521Z,10.07
2022-11-06T02:36:12.252Z,9.85
2022-11-06T02:43:40.128Z,8.07
2022-11-06T02:47:21.806Z,6.75
2022-11-06T02:51:03.825Z,6.57
2022-11-06T02:54:49.416Z,6.00
2022-11-06T02:58:55.312Z,6.57
2022-11-06T03:02:59.336Z,7.53
2022-11-06T03:10:26.253Z,7.57
2022-11-06T03:14:27.300Z,6.80
2022-11-06T03:18:30.701Z,7.43
2022-11-06T03:22:15.077Z,7.07
2022-11-06T03:26:08.051Z,6.45
2022-11-06T03:29:59.691Z,6.00
2022-11-06T03:33:50.592Z,5.70
2022-11-06T03:37:39.616Z,5.75
2022-11-06T03:41:28.249Z,5.15
2022-11-06T03:45:13.186Z,4.82
2022-11-06T03:49:02.870Z,5.30
2022-11-06T03:52:46.960Z,5.10
2022-11-06T03:56:39.309Z,5.20
2022-11-06T04:00:21.074Z,4.43
2022-11-06T04:04:31.413Z,5.00
2022-11-06T04:08:31.492Z,6.65
2022-11-06T04:12:33.921Z,7.55
2022-11-06T04:16:15.612Z,7.95
2022-11-06T04:19:58.891Z,7.47
2022-11-06T04:24:19.849Z,7.72
2022-11-06T04:28:35.472Z,7.20
2022-11-06T04:32:43.742Z,6.97
2022-11-06T04:36:32.454Z,6.22
2022-11-06T04:40:14.172Z,6.03
2022-11-06T04:43:59.027Z,6.70
2022-11-06T04:47:40.770Z,6.13
2022-11-06T04:51:26.357Z,6.20
2022-11-06T04:55:08.208Z,5.00
2022-11-06T04:58:49.904Z,5.82
2022-11-06T05:02:31.724Z,4.40
2022-11-06T05:06:13.478Z,4.63
2022-11-06T05:09:55.208Z,4.18
2022-11-06T05:13:38.239Z,4.05
2022-11-06T05:17:19.924Z,3.47
2022-11-06T05:21:21.052Z,3.35
2022-11-06T05:25:02.795Z,3.95
2022-11-06T05:28:44.459Z,3.80
2022-11-06T05:32:26.336Z,3.35
2022-11-06T05:36:08.349Z,3.97
2022-11-06T05:39:50.019Z,3.47
2022-11-06T05:43:32.941Z,3.45
2022-11-06T05:47:14.603Z,3.63
2022-11-06T05:51:03.558Z,3.83
2022-11-06T05:54:45.269Z,3.42
2022-11-06T05:58:27.490Z,3.38
2022-11-06T06:02:09.922Z,4.15
2022-11-06T06:05:51.740Z,3.38
2022-11-06T06:09:33.480Z,3.53
2022-11-06T06:13:15.465Z,3.55
2022-11-06T06:16:57.134Z,3.88
2022-11-06T06:20:38.976Z,4.55
2022-11-06T06:24:20.720Z,3.65
2022-11-06T06:28:02.427Z,3.63
2022-11-06T06:31:45.282Z,3.50
2022-11-06T06:35:26.941Z,3.33
2022-11-06T06:39:08.647Z,4.10
2022-11-06T06:42:50.528Z,3.08
2022-11-06T06:46:32.187Z,3.50
2022-11-06T06:50:14.283Z,3.70
2022-11-06T06:53:56.069Z,4.10
2022-11-06T06:57:37.746Z,4.25
2022-11-06T07:01:20.739Z,3.33
2022-11-06T07:05:02.725Z,3.00
2022-11-06T07:08:44.404Z,3.35
2022-11-06T07:12:26.306Z,2.80
2022-11-06T07:16:09.892Z,3.22
2022-11-06T07:19:51.544Z,2.42
2022-11-06T07:23:35.535Z,2.95
2022-11-06T07:27:17.203Z,2.95
2022-11-06T07:31:04.205Z,3.35
2022-11-06T07:34:45.895Z,2.30
2022-11-06T07:38:27.577Z,3.05
2022-11-06T07:42:09.325Z,3.63
2022-11-06T07:45:51.077Z,2.97
2022-11-06T07:49:32.729Z,3.40
2022-11-06T07:53:14.988Z,3.42
2022-11-06T07:56:57.004Z,4.18
2022-11-06T08:00:38.726Z,3.33
2022-11-06T08:04:20.467Z,2.70
2022-11-06T08:08:02.132Z,2.67
2022-11-06T08:11:44.029Z,2.47
2022-11-06T08:15:25.704Z,2.42
2022-11-06T08:19:07.452Z,3.17
2022-11-06T08:22:50.364Z,3.05
2022-11-06T08:26:32.096Z,2.60
2022-11-06T08:30:13.891Z,2.67
2022-11-06T08:33:55.788Z,3.50
2022-11-06T08:37:37.533Z,2.83
2022-11-06T08:41:19.385Z,3.92
2022-11-06T08:45:01.064Z,3.65
2022-11-06T08:48:42.780Z,4.63
2022-11-06T08:52:26.734Z,5.53
2022-11-06T08:56:10.414Z,3.47
2022-11-06T08:59:52.088Z,3.22
2022-11-06T09:03:33.885Z,4.35
2022-11-06T09:07:16.296Z,3.47
2022-11-06T09:10:59.125Z,2.85
2022-11-06T09:14:40.812Z,3.13
2022-11-06T09:18:22.551Z,2.80
2022-11-06T09:22:05.331Z,4.32
2022-11-06T09:25:46.987Z,3.70
2022-11-06T09:29:28.689Z,3.33
2022-11-06T09:33:13.933Z,3.95
2022-11-06T09:36:55.776Z,4.05
2022-11-06T09:40:48.920Z,4.57
2022-11-06T09:44:42.562Z,5.20
2022-11-06T09:48:30.960Z,4.78
2022-11-06T09:52:36.285Z,3.60
2022-11-06T09:56:18.118Z,3.70
2022-11-06T10:00:00.937Z,3.38
2022-11-06T10:03:49.852Z,4.00
2022-11-06T10:07:36.482Z,4.18
2022-11-06T10:11:18.248Z,3.63
2022-11-06T10:15:18.509Z,3.40
2022-11-06T10:19:21.317Z,3.47
2022-11-06T10:23:13.365Z,3.40
2022-11-06T10:26:56.684Z,4.18
2022-11-06T10:31:04.852Z,3.45
2022-11-06T10:34:48.408Z,3.13
2022-11-06T10:38:34.442Z,3.92
2022-11-06T10:42:39.992Z,2.90
2022-11-06T10:46:27.613Z,3.28
2022-11-06T10:50:13.577Z,3.13
2022-11-06T10:54:02.492Z,2.90
2022-11-06T10:57:57.817Z,2.75
2022-11-06T11:01:40.713Z,2.72
2022-11-06T11:05:23.416Z,2.95
2022-11-06T11:09:30.615Z,2.60
2022-11-06T11:13:19.487Z,2.72
2022-11-06T11:17:01.747Z,3.45
2022-11-06T11:20:46.263Z,3.15
2022-11-06T11:24:28.027Z,1.50
2022-11-06T11:28:33.489Z,2.40
2022-11-06T11:32:18.673Z,2.35
2022-11-06T11:36:00.417Z,3.35
2022-11-06T11:39:45.021Z,3.08
2022-11-06T11:43:28.065Z,2.60
2022-11-06T11:47:23.546Z,2.67
2022-11-06T11:51:41.056Z,2.03
2022-11-06T11:55:27.345Z,1.00
2022-11-06T11:59:15.625Z,0.60
2022-11-06T12:03:16.319Z,0.82
2022-11-06T12:07:02.493Z,1.63
2022-11-06T12:15:25.365Z,1.48
2022-11-06T12:19:07.518Z,1.70
2022-11-06T12:22:51.085Z,2.00
2022-11-06T12:26:53.824Z,2.42
2022-11-06T12:30:35.515Z,1.50
2022-11-06T12:34:29.721Z,1.52
2022-11-06T12:38:16.758Z,1.73
2022-11-06T12:42:00.273Z,2.80
2022-11-06T12:46:03.371Z,3.45
2022-11-06T12:49:47.908Z,3.20
2022-11-06T12:53:29.783Z,2.65
2022-11-06T12:57:30.381Z,1.92
2022-11-06T13:01:53.112Z,1.90
2022-11-06T13:05:59.993Z,1.30
2022-11-06T13:09:48.041Z,1.10
2022-11-06T13:13:43.885Z,0.70
2022-11-06T13:17:30.851Z,1.13
2022-11-06T13:21:12.646Z,1.83
2022-11-06T13:25:02.403Z,1.33
2022-11-06T13:28:46.283Z,0.90
2022-11-06T13:32:28.223Z,1.10
2022-11-06T13:36:09.946Z,0.80
2022-11-06T13:39:59.533Z,1.15
2022-11-06T13:44:21.053Z,1.05
2022-11-06T13:48:17.073Z,1.23
2022-11-06T13:52:03.444Z,1.05
2022-11-06T13:56:05.341Z,0.98
2022-11-06T14:00:02.956Z,1.42
2022-11-06T14:04:18.970Z,1.00
2022-11-06T14:08:03.500Z,1.45
2022-11-06T14:11:45.629Z,1.85
2022-11-06T14:15:34.781Z,1.40
2022-11-06T14:19:30.439Z,1.90
2022-11-06T14:23:32.605Z,1.55
2022-11-06T14:27:23.463Z,1.52
2022-11-06T14:31:12.160Z,1.55
2022-11-06T14:34:55.046Z,2.80
2022-11-06T14:38:36.860Z,2.92
2022-11-06T14:42:37.932Z,3.90
2022-11-06T14:46:22.624Z,2.50
2022-11-06T14:50:22.965Z,1.90
2022-11-06T14:54:16.597Z,2.78
2022-11-06T14:58:01.215Z,3.63
2022-11-06T15:01:43.310Z,3.40
2022-11-06T15:05:25.192Z,2.47
2022-11-06T15:09:11.638Z,2.33
2022-11-06T15:13:17.106Z,2.85
2022-11-06T15:17:14.925Z,2.85
2022-11-06T15:20:57.707Z,2.30
2022-11-06T15:24:42.980Z,1.87
2022-11-06T15:28:27.350Z,2.17
2022-11-06T15:32:15.566Z,1.80
2022-11-06T15:35:59.136Z,2.00
2022-11-06T15:39:54.678Z,1.77
2022-11-06T15:43:43.350Z,2.33
2022-11-06T15:47:26.701Z,2.83
2022-11-06T15:51:26.797Z,2.42
2022-11-06T15:55:27.578Z,3.05
2022-11-06T15:59:13.787Z,2.45
2022-11-06T16:03:01.083Z,1.60
2022-11-06T16:06:43.056Z,1.38
2022-11-06T16:10:24.797Z,1.85
2022-11-06T16:14:25.509Z,2.33
2022-11-06T16:18:29.701Z,2.97
2022-11-06T16:25:59.569Z,3.27
2022-11-06T16:29:48.734Z,7.22
2022-11-06T16:33:57.223Z,2.90
2022-11-06T16:37:39.573Z,2.42
2022-11-06T16:41:39.935Z,2.40
2022-11-06T16:45:21.751Z,4.47
2022-11-06T16:49:26.585Z,4.25
2022-11-06T16:53:09.598Z,8.75
2022-11-06T16:56:51.313Z,5.50
2022-11-06T17:00:33.207Z,10.38
2022-11-06T17:04:26.363Z,6.60
2022-11-06T17:08:24.745Z,3.93
2022-11-06T17:12:09.998Z,4.35
2022-11-06T17:16:21.546Z,3.33
2022-11-06T17:20:03.909Z,3.90
2022-11-06T17:23:46.352Z,4.45
2022-11-06T17:27:28.026Z,4.43
2022-11-06T17:31:13.780Z,6.25
2022-11-06T17:34:55.455Z,6.20
2022-11-06T17:38:37.116Z,6.60
2022-11-06T17:42:18.936Z,5.88
2022-11-06T17:46:01.488Z,14.77
2022-11-06T17:49:43.153Z,5.63
2022-11-06T17:53:26.125Z,7.30
2022-11-06T17:57:07.942Z,5.63
2022-11-06T18:00:50.006Z,5.57
2022-11-06T18:04:31.890Z,2.47
2022-11-06T18:08:14.269Z,5.05
2022-11-06T18:11:56.609Z,4.78
2022-11-06T18:15:38.327Z,4.97
2022-11-06T18:19:21.791Z,5.97
2022-11-06T18:23:03.657Z,5.07
2022-11-06T18:26:45.412Z,4.68
2022-11-06T18:30:27.097Z,26.08
2022-11-06T18:34:19.420Z,6.40
2022-11-06T18:38:02.116Z,10.50
2022-11-06T18:41:44.104Z,4.45
2022-11-06T18:45:25.760Z,5.20
2022-11-06T18:49:09.102Z,8.05
2022-11-06T18:52:58.085Z,6.30
2022-11-06T18:56:40.177Z,6.97
2022-11-06T19:00:22.249Z,4.50
2022-11-06T19:04:04.675Z,9.15
2022-11-06T19:07:50.702Z,8.85
2022-11-06T19:11:54.377Z,4.53
2022-11-06T19:15:36.129Z,3.72
2022-11-06T19:19:25.195Z,4.43
2022-11-06T19:23:08.252Z,5.88
2022-11-06T19:26:50.366Z,8.88
2022-11-06T19:30:32.060Z,5.35
2022-11-06T19:34:15.227Z,4.78
2022-11-06T19:37:56.913Z,5.22
2022-11-06T19:41:38.773Z,6.82
2022-11-06T19:45:22.020Z,6.00
2022-11-06T19:49:07.645Z,3.97
2022-11-06T19:52:53.440Z,4.47
2022-11-06T19:56:35.428Z,4.63
2022-11-06T20:00:17.688Z,5.30
2022-11-06T20:04:01.416Z,5.13
2022-11-06T20:11:24.918Z,4.35
2022-11-06T20:15:06.962Z,6.60
2022-11-06T20:18:52.742Z,4.68
2022-11-06T20:22:34.528Z,12.00
2022-11-06T20:26:16.247Z,7.53
2022-11-06T20:29:57.932Z,6.22
2022-11-06T20:33:40.208Z,4.85
2022-11-06T20:37:21.902Z,4.75
2022-11-06T20:41:03.906Z,6.25
2022-11-06T20:44:45.652Z,4.88
2022-11-06T20:48:27.326Z,4.57
2022-11-06T20:52:13.972Z,4.85
2022-11-06T20:56:03.961Z,6.85
2022-11-06T20:59:45.697Z,4.82
2022-11-06T21:03:27.536Z,3.55
2022-11-06T21:07:09.235Z,3.65
2022-11-06T21:11:06.560Z,3.58
2022-11-06T21:14:48.360Z,3.97
2022-11-06T21:18:30.362Z,5.15
2022-11-06T21:22:12.282Z,4.35
2022-11-06T21:25:53.949Z,4.57
2022-11-06T21:29:35.636Z,6.13
2022-11-06T21:33:17.666Z,5.80
2022-11-06T21:37:02.561Z,5.90
2022-11-06T21:40:44.670Z,6.38
2022-11-06T21:44:26.434Z,5.15
2022-11-06T21:48:14.804Z,6.00
2022-11-06T21:52:29.295Z,5.10
2022-11-06T21:56:12.876Z,4.25
2022-11-06T21:59:54.550Z,4.13
2022-11-06T22:03:38.502Z,4.13
2022-11-06T22:07:20.179Z,3.67
2022-11-06T22:11:11.162Z,3.97
2022-11-06T22:14:52.849Z,3.78
2022-11-06T22:18:35.091Z,3.38
2022-11-06T22:22:16.940Z,4.50
2022-11-06T22:25:59.788Z,4.17
2022-11-06T22:29:41.479Z,3.15
2022-11-06T22:33:23.281Z,4.47
2022-11-06T22:37:05.001Z,3.35
2022-11-06T22:40:56.923Z,4.13
2022-11-06T22:44:38.740Z,4.35
2022-11-06T22:48:20.464Z,3.50
2022-11-06T22:52:04.460Z,4.13
2022-11-06T22:55:46.156Z,3.90
2022-11-06T22:59:27.864Z,4.43
2022-11-06T23:03:09.726Z,4.13
2022-11-06T23:06:51.461Z,4.85
2022-11-06T23:10:34.922Z,4.10
2022-11-06T23:14:16.916Z,3.90
2022-11-06T23:17:59.116Z,3.90
2022-11-06T23:21:40.992Z,3.35
2022-11-06T23:25:22.663Z,4.32
2022-11-06T23:29:04.471Z,3.35
2022-11-06T23:32:48.365Z,4.18
2022-11-06T23:36:30.239Z,3.55
2022-11-06T23:40:12.257Z,3.97
2022-11-06T23:43:56.601Z,3.72
2022-11-06T23:47:38.273Z,4.15
2022-11-06T23:51:20.278Z,3.55
2022-11-06T23:55:02.638Z,3.45
2022-11-06T23:58:44.342Z,3.20
